Time;durP1;ratioP1;P1;durP2;ratioP2;P2;SDS_P1;SDS_P2;PMS_P1;PMS_P2;Temp;Humidity;BMP_temperature;BMP_pressure;BME280_temperature;BME280_humidity;BME280_pressure;Samples;Min_cycle;Max_cycle;Signal;HPM_P1;HPM_P2
2023/03/18 00:01:14;;;;;;;0.50;0.43;;;;;;;9.07;50.69;95540.34;5114783;28;20557;-55
2023/03/18 00:03:44;;;;;;;0.40;0.20;;;;;;;9.71;50.64;95618.53;5115030;28;20441;-55
2023/03/18 00:06:14;;;;;;;0.47;0.47;;;;;;;9.70;50.46;95618.78;5115010;28;20492;-55
2023/03/18 00:08:44;;;;;;;0.40;0.30;;;;;;;9.65;50.64;95624.84;5115300;28;20450;-55
2023/03/18 00:11:14;;;;;;;6.03;0.30;;;;;;;9.52;51.34;95618.16;5114975;28;20431;-54
2023/03/18 00:13:42;;;;;;;0.30;0.20;;;;;;;9.52;51.80;95618.16;5115021;28;20896;-54
2023/03/18 00:16:13;;;;;;;2.10;0.30;;;;;;;9.54;51.85;95616.03;5114908;28;20981;-54
2023/03/18 00:18:42;;;;;;;0.30;0.20;;;;;;;9.52;51.71;95620.00;5114885;28;20428;-54
2023/03/18 00:21:11;;;;;;;0.30;0.20;;;;;;;9.44;51.66;95623.09;5114724;28;21166;-54
2023/03/18 00:23:39;;;;;;;0.30;0.30;;;;;;;9.44;51.26;95610.69;5114602;28;21068;-55
2023/03/18 00:26:07;;;;;;;0.30;0.20;;;;;;;9.33;52.01;95614.31;5115012;28;20427;-55
2023/03/18 00:28:36;;;;;;;0.47;0.47;;;;;;;9.30;52.11;95614.03;5114605;28;20428;-55
2023/03/18 00:31:08;;;;;;;0.30;0.20;;;;;;;9.24;52.50;95615.03;5114349;28;20445;-55
2023/03/18 00:33:39;;;;;;;0.30;0.20;;;;;;;9.35;52.16;95604.28;5114567;28;20804;-55
2023/03/18 00:36:09;;;;;;;0.30;0.20;;;;;;;8.86;51.42;95521.69;5114451;28;20426;-54
2023/03/18 00:38:37;;;;;;;0.40;0.27;;;;;;;9.25;52.56;95611.34;5114789;28;20427;-54
2023/03/18 00:41:10;;;;;;;0.30;0.30;;;;;;;8.95;52.27;95548.47;5114143;28;20470;-54
2023/03/18 00:43:48;;;;;;;0.40;0.30;;;;;;;9.33;52.24;95597.66;5113833;28;20431;-54
2023/03/18 00:46:19;;;;;;;0.40;0.30;;;;;;;9.46;51.74;95599.88;5113545;28;20427;-55
2023/03/18 00:48:49;;;;;;;0.30;0.20;;;;;;;9.42;52.06;95594.28;5113761;28;20458;-54
2023/03/18 00:51:18;;;;;;;0.43;0.40;;;;;;;8.99;52.51;95588.38;5114111;28;20479;-54
2023/03/18 00:53:50;;;;;;;0.40;0.27;;;;;;;9.11;52.76;95581.09;5114087;28;20434;-55
2023/03/18 00:56:20;;;;;;;0.30;0.23;;;;;;;8.88;52.31;95513.50;5114014;28;20424;-54
2023/03/18 00:58:51;;;;;;;0.30;0.20;;;;;;;9.28;52.42;95582.56;5114004;28;21016;-54
2023/03/18 01:01:20;;;;;;;0.43;0.33;;;;;;;9.06;52.84;95581.06;5113943;28;20490;-55
2023/03/18 01:03:50;;;;;;;0.30;0.20;;;;;;;9.24;51.95;95584.09;5113721;28;20803;-55
2023/03/18 01:06:21;;;;;;;0.30;0.30;;;;;;;9.32;52.05;95570.41;5114213;28;20930;-54
2023/03/18 01:08:50;;;;;;;0.40;0.30;;;;;;;9.31;52.01;95578.59;5114026;28;20437;-54
2023/03/18 01:11:19;;;;;;;0.30;0.20;;;;;;;9.23;52.75;95579.06;5113843;28;20458;-55
2023/03/18 01:13:47;;;;;;;0.30;0.30;;;;;;;8.61;52.45;95571.69;5113750;28;20427;-54
2023/03/18 01:16:16;;;;;;;0.40;0.30;;;;;;;8.65;52.72;95577.28;5113747;28;20813;-55
2023/03/18 01:18:45;;;;;;;0.30;0.20;;;;;;;8.79;52.67;95575.81;5113783;28;20974;-55
2023/03/18 01:21:15;;;;;;;0.30;0.20;;;;;;;8.96;53.69;95576.47;5113009;28;20498;-55
2023/03/18 01:23:44;;;;;;;0.30;0.20;;;;;;;9.08;52.93;95573.69;5113189;28;20521;-55
2023/03/18 01:26:12;;;;;;;0.30;0.30;;;;;;;9.12;52.25;95569.47;5113832;28;20825;-55
2023/03/18 01:28:41;;;;;;;0.30;0.30;;;;;;;9.07;52.96;95570.22;5113534;28;20459;-55
2023/03/18 01:31:11;;;;;;;0.50;0.47;;;;;;;8.99;52.63;95565.41;5113729;28;20449;-55
2023/03/18 01:33:40;;;;;;;0.30;0.20;;;;;;;9.06;52.12;95570.50;5113757;28;20421;-55
2023/03/18 01:36:09;;;;;;;0.30;0.20;;;;;;;8.93;52.32;95563.75;5113458;28;20516;-56
2023/03/18 01:38:41;;;;;;;0.30;0.20;;;;;;;8.91;52.03;95568.50;5113413;28;20435;-55
2023/03/18 01:41:10;;;;;;;0.40;0.30;;;;;;;8.90;52.37;95562.41;5112644;28;20471;-55
2023/03/18 01:43:41;;;;;;;0.40;0.40;;;;;;;8.83;52.67;95550.47;5113033;28;20466;-55
2023/03/18 01:46:33;;;;;;;0.30;0.20;;;;;;;8.75;52.84;95559.66;5112825;28;20509;-55
2023/03/18 01:49:02;;;;;;;0.30;0.30;;;;;;;8.74;53.16;95554.63;5113433;28;20522;-55
2023/03/18 01:51:31;;;;;;;0.30;0.30;;;;;;;8.60;53.64;95558.75;5113358;28;20469;-55
2023/03/18 01:54:03;;;;;;;0.30;0.20;;;;;;;8.36;53.37;95533.66;5113314;28;20442;-55
2023/03/18 01:56:35;;;;;;;0.30;0.20;;;;;;;8.51;53.35;95562.88;5113116;28;20934;-55
2023/03/18 01:59:06;;;;;;;0.30;0.20;;;;;;;8.40;53.79;95558.53;5111498;28;20431;-55
2023/03/18 02:01:40;;;;;;;0.30;0.20;;;;;;;8.23;54.31;95563.88;5112772;28;21145;-55
2023/03/18 02:04:10;;;;;;;5.10;0.30;;;;;;;8.04;54.58;95568.69;5112657;28;20464;-55
2023/03/18 02:06:39;;;;;;;0.50;0.50;;;;;;;7.88;53.93;95537.88;5112823;28;20432;-55
2023/03/18 02:09:09;;;;;;;0.40;0.30;;;;;;;8.17;54.06;95570.16;5112657;28;20520;-55
2023/03/18 02:11:41;;;;;;;0.30;0.20;;;;;;;7.89;54.97;95565.06;5112703;28;20425;-55
2023/03/18 02:14:13;;;;;;;0.30;0.20;;;;;;;7.88;54.81;95563.47;5112571;28;20957;-55
2023/03/18 02:16:44;;;;;;;0.57;0.47;;;;;;;7.13;55.80;95560.63;5112888;28;20436;-55
2023/03/18 02:19:26;;;;;;;0.33;0.23;;;;;;;6.54;56.86;95535.72;5112707;28;20432;-55
2023/03/18 02:22:03;;;;;;;0.70;0.53;;;;;;;6.97;56.81;95573.56;5112363;28;20474;-55
2023/03/18 02:24:41;;;;;;;0.40;0.30;;;;;;;6.56;57.51;95571.31;5111909;28;20999;-55
2023/03/18 02:27:19;;;;;;;0.40;0.30;;;;;;;6.72;56.46;95564.47;5112523;28;20445;-55
2023/03/18 02:29:49;;;;;;;0.40;0.30;;;;;;;6.75;56.77;95569.25;5112132;28;20433;-55
2023/03/18 02:32:19;;;;;;;0.40;0.30;;;;;;;6.94;56.30;95563.50;5112646;28;20787;-55
2023/03/18 02:34:48;;;;;;;0.40;0.20;;;;;;;7.33;56.24;95571.47;5112297;28;20436;-56
2023/03/18 02:37:16;;;;;;;0.30;0.20;;;;;;;7.50;55.55;95565.13;5112269;28;20424;-56
2023/03/18 02:39:44;;;;;;;0.30;0.20;;;;;;;7.21;55.52;95554.97;5112556;28;20442;-56
2023/03/18 02:42:13;;;;;;;0.40;0.40;;;;;;;7.23;54.98;95564.22;5112106;28;20508;-57
2023/03/18 02:44:45;;;;;;;0.30;0.30;;;;;;;6.89;55.82;95567.91;5111858;28;20433;-56
2023/03/18 02:47:18;;;;;;;0.30;0.20;;;;;;;7.19;55.84;95555.19;5112289;28;20854;-56
2023/03/18 02:49:47;;;;;;;0.73;0.30;;;;;;;6.22;56.91;95552.00;5111986;28;20466;-56
2023/03/18 02:52:15;;;;;;;0.40;0.40;;;;;;;6.32;57.60;95557.47;5111442;28;20421;-56
2023/03/18 02:54:43;;;;;;;0.50;0.30;;;;;;;6.06;58.88;95565.13;5111927;28;20941;-56
2023/03/18 02:57:12;;;;;;;0.50;0.50;;;;;;;6.15;58.21;95553.19;5112185;28;20788;-56
2023/03/18 02:59:40;;;;;;;2.97;0.40;;;;;;;6.52;57.36;95564.94;5112172;28;20455;-56
2023/03/18 03:02:10;;;;;;;0.30;0.20;;;;;;;6.84;57.63;95565.19;5111823;28;20501;-57
2023/03/18 03:04:38;;;;;;;0.30;0.23;;;;;;;6.36;57.45;95569.13;5111803;28;20473;-56
2023/03/18 03:07:07;;;;;;;0.30;0.20;;;;;;;6.22;58.58;95567.03;5112144;28;20530;-56
2023/03/18 03:09:35;;;;;;;0.43;0.40;;;;;;;6.56;57.95;95570.50;5111501;28;20434;-56
2023/03/18 03:12:04;;;;;;;0.40;0.30;;;;;;;6.48;57.57;95569.06;5111642;28;20458;-56
2023/03/18 03:14:32;;;;;;;0.30;0.20;;;;;;;6.57;57.05;95572.13;5111562;28;20917;-56
2023/03/18 03:17:01;;;;;;;0.30;0.20;;;;;;;6.75;56.51;95566.63;5111742;28;20974;-57
2023/03/18 03:19:32;;;;;;;0.30;0.20;;;;;;;6.47;57.46;95564.03;5111532;28;20481;-56
2023/03/18 03:22:00;;;;;;;0.30;0.20;;;;;;;6.10;57.89;95564.44;5111494;28;20892;-56
2023/03/18 03:24:29;;;;;;;0.60;0.30;;;;;;;6.15;57.86;95559.25;5111465;28;20506;-56
2023/03/18 03:26:57;;;;;;;0.30;0.20;;;;;;;6.33;57.60;95555.63;5111982;28;20431;-56
2023/03/18 03:29:25;;;;;;;2.23;0.40;;;;;;;6.47;58.17;95561.41;5111779;28;20420;-57
2023/03/18 03:31:54;;;;;;;0.40;0.30;;;;;;;6.32;58.42;95570.63;5111356;28;20439;-56
2023/03/18 03:34:23;;;;;;;0.40;0.30;;;;;;;6.30;58.38;95571.88;5111456;28;20448;-56
2023/03/18 03:36:53;;;;;;;0.30;0.20;;;;;;;6.43;57.94;95565.53;5111480;28;20944;-56
2023/03/18 03:39:21;;;;;;;0.30;0.30;;;;;;;6.51;57.17;95565.97;5111261;28;20432;-56
2023/03/18 03:41:50;;;;;;;0.40;0.40;;;;;;;6.60;57.07;95566.38;5111380;28;20832;-56
2023/03/18 03:44:19;;;;;;;0.30;0.20;;;;;;;6.85;58.17;95566.78;5111492;28;20464;-57
2023/03/18 03:46:48;;;;;;;0.30;0.20;;;;;;;6.92;56.56;95564.78;5111507;28;20795;-56
2023/03/18 03:49:17;;;;;;;0.50;0.30;;;;;;;6.98;58.57;95577.00;5111706;28;20429;-56
2023/03/18 03:51:45;;;;;;;0.30;0.20;;;;;;;7.10;58.88;95546.09;5111252;28;21018;-56
2023/03/18 03:54:15;;;;;;;0.30;0.20;;;;;;;7.10;60.36;95509.19;5111530;28;20428;-56
2023/03/18 03:56:43;;;;;;;0.60;0.33;;;;;;;7.33;57.90;95574.09;5111266;28;20811;-56
2023/03/18 03:59:12;;;;;;;0.30;0.20;;;;;;;7.42;58.29;95576.06;5110766;28;20516;-56
2023/03/18 04:01:40;;;;;;;0.30;0.20;;;;;;;7.34;57.50;95573.84;5110958;28;20412;-56
2023/03/18 04:04:08;;;;;;;0.30;0.20;;;;;;;7.45;56.93;95580.06;5111966;28;20462;-56
2023/03/18 04:06:37;;;;;;;0.30;0.20;;;;;;;7.53;56.52;95583.09;5114232;28;20454;-56
2023/03/18 04:09:05;;;;;;;0.40;0.30;;;;;;;7.33;57.11;95582.81;5114214;28;20437;-56
2023/03/18 04:11:35;;;;;;;2.33;0.83;;;;;;;6.71;56.89;95526.78;5114293;28;20428;-56
2023/03/18 04:14:03;;;;;;;0.70;0.70;;;;;;;6.99;58.10;95575.97;5114286;28;20750;-56
2023/03/18 04:16:32;;;;;;;0.30;0.30;;;;;;;7.29;57.24;95581.69;5113948;28;20965;-56
2023/03/18 04:19:01;;;;;;;0.30;0.20;;;;;;;6.66;56.28;95499.56;5113871;28;20935;-56
2023/03/18 04:21:29;;;;;;;0.40;0.30;;;;;;;7.11;56.54;95584.56;5113805;28;20428;-56
2023/03/18 04:23:57;;;;;;;0.30;0.30;;;;;;;7.44;56.96;95583.72;5113003;28;20493;-56
2023/03/18 04:26:27;;;;;;;2.20;0.63;;;;;;;7.04;56.78;95539.94;5114280;28;20784;-56
2023/03/18 04:28:57;;;;;;;0.30;0.20;;;;;;;7.68;56.54;95585.94;5113982;28;20486;-59
2023/03/18 04:31:25;;;;;;;0.37;0.33;;;;;;;7.72;55.49;95585.41;5114565;28;20438;-56
2023/03/18 04:33:54;;;;;;;0.50;0.40;;;;;;;7.75;54.82;95591.03;5114160;28;20940;-56
2023/03/18 04:36:22;;;;;;;0.30;0.20;;;;;;;7.55;55.44;95588.13;5114438;28;20429;-56
2023/03/18 04:38:51;;;;;;;0.30;0.30;;;;;;;7.52;55.24;95593.88;5114425;28;20422;-56
2023/03/18 04:41:19;;;;;;;0.50;0.40;;;;;;;7.14;55.40;95592.00;5114394;28;20512;-56
2023/03/18 04:43:48;;;;;;;0.33;0.30;;;;;;;7.18;56.14;95590.50;5113197;28;21020;-56
2023/03/18 04:46:18;;;;;;;0.30;0.20;;;;;;;7.00;55.31;95522.22;5114009;28;20432;-56
2023/03/18 04:48:46;;;;;;;0.40;0.40;;;;;;;6.83;56.38;95588.09;5114493;28;20424;-56
2023/03/18 04:51:15;;;;;;;0.50;0.40;;;;;;;6.64;57.81;95596.47;5114076;28;20440;-55
2023/03/18 04:53:43;;;;;;;0.60;0.60;;;;;;;6.68;57.85;95584.44;5113941;28;20420;-55
2023/03/18 04:56:11;;;;;;;0.30;0.20;;;;;;;6.98;57.56;95596.22;5113948;28;20432;-55
2023/03/18 04:58:40;;;;;;;0.37;0.30;;;;;;;7.23;56.76;95602.94;5113130;28;20795;-56
2023/03/18 05:01:08;;;;;;;0.40;0.40;;;;;;;7.09;57.46;95602.47;5114023;28;20421;-56
2023/03/18 05:03:38;;;;;;;0.50;0.50;;;;;;;7.28;57.00;95609.09;5113771;28;20483;-55
2023/03/18 05:06:08;;;;;;;0.40;0.30;;;;;;;7.18;57.61;95601.03;5113881;28;20425;-56
2023/03/18 05:08:36;;;;;;;0.50;0.50;;;;;;;7.28;55.98;95585.38;5113409;28;20465;-56
2023/03/18 05:11:05;;;;;;;0.40;0.30;;;;;;;7.40;56.39;95612.44;5113549;28;20986;-56
2023/03/18 05:13:33;;;;;;;0.50;0.43;;;;;;;7.71;55.27;95607.59;5113465;28;20964;-56
2023/03/18 05:16:01;;;;;;;0.30;0.20;;;;;;;7.67;55.86;95610.72;5112934;28;20433;-56
2023/03/18 05:18:30;;;;;;;0.33;0.30;;;;;;;7.74;55.32;95610.56;5113466;28;20431;-56
2023/03/18 05:20:59;;;;;;;0.70;0.70;;;;;;;7.78;55.50;95616.13;5113338;28;20505;-56
2023/03/18 05:23:28;;;;;;;0.43;0.30;;;;;;;7.89;54.95;95616.03;5113231;28;20523;-56
2023/03/18 05:25:57;;;;;;;0.50;0.50;;;;;;;7.76;56.21;95613.75;5113294;28;20507;-56
2023/03/18 05:28:26;;;;;;;0.70;0.60;;;;;;;7.66;55.94;95624.94;5113460;28;20438;-55
2023/03/18 05:30:54;;;;;;;1.03;1.00;;;;;;;7.45;56.19;95617.78;5113263;28;20435;-56
2023/03/18 05:33:22;;;;;;;1.07;0.50;;;;;;;7.53;56.38;95624.50;5113233;28;20516;-55
2023/03/18 05:35:59;;;;;;;1.00;1.00;;;;;;;7.64;56.54;95602.47;5113367;28;20428;-56
2023/03/18 05:38:29;;;;;;;0.50;0.50;;;;;;;7.45;55.64;95601.97;5113380;28;20426;-56
2023/03/18 05:40:57;;;;;;;0.60;0.50;;;;;;;7.61;56.50;95619.59;5113194;28;20439;-56
2023/03/18 05:43:27;;;;;;;0.47;0.47;;;;;;;7.25;56.20;95564.75;5112972;28;20997;-56
2023/03/18 05:45:55;;;;;;;0.70;0.60;;;;;;;8.03;55.77;95629.63;5113025;28;20416;-56
2023/03/18 05:48:24;;;;;;;0.50;0.33;;;;;;;7.84;55.91;95625.72;5112984;28;20444;-56
2023/03/18 05:50:52;;;;;;;0.50;0.40;;;;;;;7.79;55.66;95625.66;5112852;28;20472;-56
2023/03/18 05:53:21;;;;;;;0.70;0.70;;;;;;;7.92;55.44;95625.28;5112958;28;20997;-56
2023/03/18 05:55:50;;;;;;;0.50;0.40;;;;;;;8.15;54.55;95636.38;5112512;28;20972;-56
2023/03/18 05:58:19;;;;;;;0.30;0.30;;;;;;;8.04;54.65;95639.16;5112662;28;20784;-56
2023/03/18 06:00:51;;;;;;;0.40;0.30;;;;;;;8.12;55.14;95644.03;5112143;28;20516;-56
2023/03/18 06:03:20;;;;;;;0.40;0.30;;;;;;;8.01;55.18;95642.28;5112680;28;20478;-56
2023/03/18 06:05:49;;;;;;;0.40;0.30;;;;;;;7.76;55.48;95644.59;5112531;28;20825;-56
2023/03/18 06:08:17;;;;;;;0.40;0.30;;;;;;;8.18;54.80;95640.38;5112661;28;20457;-56
2023/03/18 06:10:45;;;;;;;0.37;0.23;;;;;;;8.30;54.41;95639.25;5112920;28;20461;-55
2023/03/18 06:13:16;;;;;;;0.30;0.20;;;;;;;7.55;54.95;95507.16;5112581;28;20435;-55
2023/03/18 06:15:45;;;;;;;0.30;0.20;;;;;;;7.80;54.87;95553.34;5112423;28;20439;-55
2023/03/18 06:18:16;;;;;;;0.77;0.77;;;;;;;7.88;55.83;95632.88;5112869;28;20475;-55
2023/03/18 06:20:44;;;;;;;0.57;0.33;;;;;;;8.35;54.99;95633.22;5112491;28;20443;-56
2023/03/18 06:23:13;;;;;;;4.40;0.57;;;;;;;8.59;53.87;95634.56;5111457;28;20950;-56
2023/03/18 06:25:42;;;;;;;1.07;1.07;;;;;;;8.40;54.34;95583.09;5112312;28;20522;-56
2023/03/18 06:28:10;;;;;;;0.30;0.30;;;;;;;8.75;53.33;95635.50;5112249;28;20500;-55
2023/03/18 06:30:43;;;;;;;0.50;0.50;;;;;;;8.92;53.32;95621.13;5112316;28;20426;-56
2023/03/18 06:33:18;;;;;;;0.30;0.30;;;;;;;8.75;53.02;95624.94;5112602;28;20426;-56
2023/03/18 06:35:48;;;;;;;0.40;0.30;;;;;;;8.79;52.73;95626.81;5112463;28;20438;-57
2023/03/18 06:38:16;;;;;;;0.30;0.20;;;;;;;8.94;52.82;95629.59;5112368;28;20486;-55
2023/03/18 06:40:46;;;;;;;0.30;0.20;;;;;;;8.71;53.19;95624.63;5112238;28;20534;-56
2023/03/18 06:43:14;;;;;;;0.43;0.40;;;;;;;8.98;52.45;95616.66;5112170;28;20958;-56
2023/03/18 06:45:44;;;;;;;0.30;0.20;;;;;;;8.68;53.25;95608.47;5112097;28;20911;-56
2023/03/18 06:48:12;;;;;;;0.40;0.37;;;;;;;8.94;52.43;95610.28;5112180;28;20469;-56
2023/03/18 06:50:45;;;;;;;0.40;0.30;;;;;;;8.81;53.43;95613.34;5111888;28;20423;-56
2023/03/18 06:53:16;;;;;;;0.40;0.33;;;;;;;8.80;53.71;95609.91;5111509;28;20450;-56
2023/03/18 06:55:44;;;;;;;0.70;0.57;;;;;;;9.04;54.14;95610.38;5111874;28;20424;-56
2023/03/18 06:58:13;;;;;;;3.27;0.53;;;;;;;8.69;54.52;95618.81;5112142;28;20442;-57
2023/03/18 07:00:44;;;;;;;1.43;1.17;;;;;;;8.17;55.51;95591.28;5111163;28;20942;-56
2023/03/18 07:03:14;;;;;;;0.63;0.63;;;;;;;8.40;55.93;95619.28;5112036;28;20433;-56
2023/03/18 07:05:42;;;;;;;0.80;0.70;;;;;;;8.28;56.67;95622.06;5112024;28;20490;-56
2023/03/18 07:08:11;;;;;;;0.50;0.37;;;;;;;8.83;55.17;95614.69;5111825;28;20806;-55
2023/03/18 07:10:39;;;;;;;0.70;0.60;;;;;;;8.84;54.75;95616.28;5112034;28;20437;-55
2023/03/18 07:13:09;;;;;;;0.30;0.20;;;;;;;8.80;55.12;95583.47;5110984;28;20427;-55
2023/03/18 07:15:38;;;;;;;0.60;0.60;;;;;;;8.62;55.17;95617.41;5111594;28;20435;-55
2023/03/18 07:18:08;;;;;;;2.00;0.50;;;;;;;8.80;55.79;95588.00;5111704;28;20423;-55
2023/03/18 07:20:39;;;;;;;1.57;0.70;;;;;;;9.03;54.65;95605.34;5111524;28;20427;-55
2023/03/18 07:23:08;;;;;;;0.60;0.60;;;;;;;9.27;53.54;95601.31;5110809;28;20482;-55
2023/03/18 07:25:37;;;;;;;1.17;1.17;;;;;;;8.88;54.23;95612.09;5110946;28;20490;-55
2023/03/18 07:28:05;;;;;;;0.50;0.50;;;;;;;8.52;53.70;95509.78;5111219;28;20432;-55
2023/03/18 07:30:34;;;;;;;0.30;0.30;;;;;;;9.26;53.03;95608.44;5111496;28;20420;-55
2023/03/18 07:33:04;;;;;;;0.30;0.30;;;;;;;9.25;52.96;95612.16;5111686;28;20467;-55
2023/03/18 07:35:34;;;;;;;0.50;0.40;;;;;;;9.37;52.95;95611.97;5110794;28;20415;-55
2023/03/18 07:38:03;;;;;;;0.63;0.63;;;;;;;8.61;53.13;95608.66;5110644;28;20459;-55
2023/03/18 07:40:31;;;;;;;2.53;0.50;;;;;;;8.71;53.67;95606.13;5114645;28;20432;-56
2023/03/18 07:42:59;;;;;;;0.30;0.20;;;;;;;9.11;53.02;95607.53;5114947;28;20435;-55
2023/03/18 07:45:28;;;;;;;0.70;0.50;;;;;;;7.99;52.67;95550.16;5115291;28;20511;-55
2023/03/18 07:47:57;;;;;;;0.90;0.87;;;;;;;7.72;53.11;95533.47;5115548;28;20423;-55
2023/03/18 07:50:26;;;;;;;0.40;0.40;;;;;;;8.76;53.21;95611.47;5114635;28;20434;-55
2023/03/18 07:52:56;;;;;;;0.53;0.53;;;;;;;9.19;50.60;95617.63;5115158;28;20420;-55
2023/03/18 07:55:24;;;;;;;0.40;0.30;;;;;;;9.64;50.17;95607.38;5115073;28;20423;-55
2023/03/18 07:57:52;;;;;;;0.40;0.40;;;;;;;9.00;51.91;95603.22;5114839;28;20485;-55
2023/03/18 08:00:22;;;;;;;0.30;0.30;;;;;;;8.86;51.00;95608.09;5114974;28;20422;-55
2023/03/18 08:02:50;;;;;;;0.30;0.30;;;;;;;8.93;52.57;95604.22;5114898;28;20931;-55
2023/03/18 08:05:20;;;;;;;0.43;0.43;;;;;;;9.39;52.36;95607.19;5114783;28;20560;-55
2023/03/18 08:07:49;;;;;;;0.30;0.30;;;;;;;9.84;50.64;95602.19;5114873;28;20439;-55
2023/03/18 08:10:19;;;;;;;0.40;0.30;;;;;;;9.56;51.00;95598.06;5115205;28;20415;-55
2023/03/18 08:12:47;;;;;;;0.30;0.20;;;;;;;10.01;49.96;95605.47;5114388;28;21006;-55
2023/03/18 08:15:21;;;;;;;1.33;0.60;;;;;;;9.96;49.41;95589.56;5114498;28;20425;-55
2023/03/18 08:17:49;;;;;;;6.47;0.30;;;;;;;9.71;49.89;95593.91;5114560;28;20434;-55
2023/03/18 08:20:18;;;;;;;3.60;1.17;;;;;;;9.66;50.06;95605.28;5115231;28;20846;-55
2023/03/18 08:22:47;;;;;;;0.50;0.30;;;;;;;9.54;50.69;95584.28;5114464;28;20846;-55
2023/03/18 08:25:16;;;;;;;0.50;0.50;;;;;;;9.79;49.02;95593.44;5114294;28;20478;-54
2023/03/18 08:27:46;;;;;;;0.40;0.30;;;;;;;10.08;48.67;95606.03;5114253;28;20431;-55
2023/03/18 08:30:15;;;;;;;1.67;1.07;;;;;;;10.62;47.22;95600.41;5114445;28;20887;-55
2023/03/18 08:32:44;;;;;;;1.23;0.60;;;;;;;10.63;47.37;95581.56;5114661;28;20788;-55
2023/03/18 08:35:13;;;;;;;0.30;0.20;;;;;;;10.85;45.82;95586.66;5114616;28;20473;-55
2023/03/18 08:37:41;;;;;;;1.37;0.60;;;;;;;10.25;47.59;95605.03;5114488;28;20467;-54
2023/03/18 08:40:11;;;;;;;0.30;0.20;;;;;;;10.33;47.70;95605.34;5113941;28;20432;-54
2023/03/18 08:42:39;;;;;;;0.40;0.30;;;;;;;10.47;46.16;95587.91;5113960;28;20424;-55
2023/03/18 08:45:11;;;;;;;0.30;0.20;;;;;;;10.68;46.45;95599.31;5113893;28;20498;-54
2023/03/18 08:47:40;;;;;;;0.30;0.20;;;;;;;10.55;46.47;95600.63;5114465;28;20431;-55
2023/03/18 08:50:09;;;;;;;0.40;0.40;;;;;;;10.36;47.50;95543.88;5112904;28;20518;-56
2023/03/18 08:52:38;;;;;;;0.33;0.30;;;;;;;10.53;47.56;95594.00;5113988;28;20477;-56
2023/03/18 08:55:08;;;;;;;0.30;0.20;;;;;;;10.64;46.19;95595.63;5113462;28;20427;-55
2023/03/18 08:57:37;;;;;;;0.50;0.40;;;;;;;10.88;46.15;95607.31;5113727;28;20442;-56
2023/03/18 09:00:07;;;;;;;0.50;0.40;;;;;;;10.25;48.35;95608.50;5113495;28;20457;-56
2023/03/18 09:02:37;;;;;;;0.40;0.40;;;;;;;10.05;46.92;95606.53;5113574;28;20439;-56
2023/03/18 09:05:06;;;;;;;0.50;0.40;;;;;;;9.71;46.18;95544.44;5113844;28;20911;-56
2023/03/18 09:07:35;;;;;;;0.30;0.20;;;;;;;10.38;47.33;95604.56;5113912;28;20424;-56
2023/03/18 09:10:03;;;;;;;1.27;0.30;;;;;;;10.08;47.06;95607.88;5113643;28;20423;-55
2023/03/18 09:12:32;;;;;;;0.70;0.70;;;;;;;10.17;48.04;95611.63;5113890;28;20436;-56
2023/03/18 09:15:00;;;;;;;0.40;0.30;;;;;;;9.76;45.93;95610.63;5114031;28;20416;-56
2023/03/18 09:17:29;;;;;;;0.50;0.43;;;;;;;9.93;46.92;95605.16;5113170;28;20428;-55
2023/03/18 09:20:17;;;;;;;0.50;0.30;;;;;;;10.26;45.78;95598.69;5113341;28;20435;-55
2023/03/18 09:22:47;;;;;;;0.77;0.60;;;;;;;10.07;45.71;95598.31;5113236;28;20566;-55
2023/03/18 09:25:15;;;;;;;0.50;0.50;;;;;;;10.14;45.15;95607.66;5113293;28;20573;-55
2023/03/18 09:27:44;;;;;;;0.40;0.20;;;;;;;10.62;43.97;95613.66;5113409;28;20427;-56
2023/03/18 09:30:14;;;;;;;0.40;0.30;;;;;;;10.99;42.98;95600.97;5113321;28;20852;-56
2023/03/18 09:32:43;;;;;;;0.40;0.30;;;;;;;11.29;42.63;95600.97;5113450;28;20451;-55
2023/03/18 09:35:13;;;;;;;0.50;0.30;;;;;;;11.49;42.25;95597.50;5113164;28;20791;-56
2023/03/18 09:37:43;;;;;;;0.30;0.20;;;;;;;11.44;43.79;95600.97;5113459;28;20556;-56
2023/03/18 09:40:18;;;;;;;0.30;0.20;;;;;;;11.48;41.67;95598.56;5113388;28;20518;-55
2023/03/18 09:43:05;;;;;;;0.87;0.40;;;;;;;11.33;40.97;95596.72;5113025;28;20510;-55
2023/03/18 09:45:38;;;;;;;0.30;0.20;;;;;;;11.01;41.92;95598.84;5112392;28;20829;-55
2023/03/18 09:48:42;;;;;;;0.70;0.70;;;;;;;10.72;42.92;95597.75;5113050;28;20428;-55
2023/03/18 09:51:24;;;;;;;0.50;0.40;;;;;;;10.61;43.37;95593.50;5108163;28;20523;-55
2023/03/18 09:53:58;;;;;;;0.30;0.30;;;;;;;10.49;42.39;95600.88;5112564;28;20526;-55
2023/03/18 09:56:29;;;;;;;0.30;0.20;;;;;;;11.08;42.97;95590.63;5112922;28;20432;-56
2023/03/18 09:59:02;;;;;;;0.30;0.20;;;;;;;11.31;41.85;95596.19;5112862;28;20470;-55
2023/03/18 10:01:34;;;;;;;0.40;0.40;;;;;;;11.76;41.01;95591.91;5112132;28;20432;-55
2023/03/18 10:04:09;;;;;;;0.40;0.30;;;;;;;11.30;42.86;95594.59;5112716;28;20438;-55
2023/03/18 10:06:41;;;;;;;0.40;0.30;;;;;;;11.68;41.57;95585.28;5112428;28;20546;-55
2023/03/18 10:09:19;;;;;;;1.80;1.80;;;;;;;11.82;42.14;95593.47;5112598;28;20823;-56
2023/03/18 10:11:49;;;;;;;0.30;0.20;;;;;;;12.14;41.32;95588.63;5112856;28;20435;-55
2023/03/18 10:14:31;;;;;;;0.40;0.27;;;;;;;12.03;41.62;95563.13;5112024;28;20511;-55
2023/03/18 10:17:10;;;;;;;0.30;0.20;;;;;;;12.15;43.25;95594.69;5112576;28;20424;-55
2023/03/18 10:19:44;;;;;;;1.20;1.03;;;;;;;12.09;42.61;95601.91;5112479;28;20940;-55
2023/03/18 10:23:03;;;;;;;0.30;0.20;;;;;;;11.83;43.22;95592.44;5112378;28;20770;-56
2023/03/18 10:25:37;;;;;;;0.80;0.37;;;;;;;11.69;42.69;95588.75;5049265;28;20495;-56
2023/03/18 10:28:28;;;;;;;0.50;0.40;;;;;;;11.62;42.22;95588.97;5049643;28;20517;-56
2023/03/18 10:31:07;;;;;;;0.30;0.20;;;;;;;11.61;42.49;95582.09;5098243;28;20436;-56
2023/03/18 10:33:46;;;;;;;0.30;0.20;;;;;;;11.91;42.43;95597.19;5112205;28;20419;-56
2023/03/18 10:36:21;;;;;;;0.60;0.53;;;;;;;12.08;42.05;95590.50;5112082;28;20888;-56
2023/03/18 10:38:50;;;;;;;0.30;0.20;;;;;;;11.81;41.55;95589.25;5112177;28;20503;-56
2023/03/18 10:41:25;;;;;;;0.40;0.30;;;;;;;11.97;42.29;95580.16;5111984;28;20438;-56
2023/03/18 10:43:57;;;;;;;0.40;0.30;;;;;;;12.06;42.53;95581.19;5112301;28;20457;-56
2023/03/18 10:46:27;;;;;;;8.13;0.50;;;;;;;11.84;43.11;95583.41;5112182;28;20498;-56
2023/03/18 10:49:00;;;;;;;0.50;0.50;;;;;;;11.80;42.09;95574.38;5112186;28;20930;-56
2023/03/18 10:51:34;;;;;;;0.40;0.40;;;;;;;11.81;43.18;95573.31;5111921;28;20928;-57
2023/03/18 10:54:10;;;;;;;0.60;0.60;;;;;;;11.86;45.34;95574.09;5111561;28;20437;-56
2023/03/18 10:56:40;;;;;;;0.30;0.20;;;;;;;11.76;42.86;95573.31;5111882;28;20442;-56
2023/03/18 10:59:17;;;;;;;0.40;0.30;;;;;;;12.01;43.14;95573.25;5111189;28;20427;-56
2023/03/18 11:01:48;;;;;;;0.50;0.30;;;;;;;11.96;43.46;95571.41;5112131;28;20462;-56
2023/03/18 11:04:20;;;;;;;0.30;0.20;;;;;;;11.97;43.80;95566.88;5111759;28;20979;-56
2023/03/18 11:06:53;;;;;;;0.33;0.23;;;;;;;11.24;45.68;95566.47;5111979;28;20595;-56
2023/03/18 11:09:24;;;;;;;1.47;0.60;;;;;;;11.12;45.92;95573.13;5111359;28;20438;-56
2023/03/18 11:12:04;;;;;;;1.47;0.43;;;;;;;10.66;48.43;95559.03;5111094;28;20431;-56
2023/03/18 11:14:33;;;;;;;0.40;0.37;;;;;;;10.43;46.87;95575.41;5113727;28;20935;-55
2023/03/18 11:17:04;;;;;;;0.40;0.40;;;;;;;10.51;47.54;95554.50;5115567;28;20462;-55
2023/03/18 11:19:38;;;;;;;0.40;0.30;;;;;;;10.43;50.30;95557.69;5116072;28;20869;-56
2023/03/18 11:22:18;;;;;;;0.50;0.50;;;;;;;10.46;52.10;95559.00;5115686;28;20428;-56
2023/03/18 11:25:00;;;;;;;0.30;0.30;;;;;;;10.31;47.79;95535.13;5115450;28;20531;-55
2023/03/18 11:27:36;;;;;;;1.90;0.67;;;;;;;10.84;46.89;95559.34;5115510;28;20976;-55
2023/03/18 11:30:14;;;;;;;0.47;0.47;;;;;;;10.76;47.12;95543.94;5115593;28;20439;-56
2023/03/18 11:32:57;;;;;;;0.50;0.50;;;;;;;10.52;47.07;95504.97;5115313;28;20420;-56
2023/03/18 11:35:33;;;;;;;0.30;0.20;;;;;;;10.21;48.06;95549.16;5115501;28;20444;-57
2023/03/18 11:38:04;;;;;;;0.50;0.40;;;;;;;10.46;47.44;95543.91;5115353;28;20527;-56
2023/03/18 11:40:32;;;;;;;0.53;0.53;;;;;;;10.71;46.93;95533.34;5115428;28;20466;-56
2023/03/18 11:43:14;;;;;;;0.40;0.40;;;;;;;10.97;46.75;95518.22;5115290;28;20447;-55
2023/03/18 11:45:47;;;;;;;0.40;0.40;;;;;;;10.76;46.05;95527.22;5115196;28;20438;-54
2023/03/18 11:48:22;;;;;;;0.57;0.50;;;;;;;10.51;48.90;95524.56;5114822;28;20431;-55
2023/03/18 11:51:05;;;;;;;1.33;0.53;;;;;;;10.19;47.50;95530.09;5115512;28;20427;-55
2023/03/18 11:53:45;;;;;;;0.30;0.20;;;;;;;10.21;45.88;95474.97;5115414;28;20432;-56
2023/03/18 11:56:21;;;;;;;0.43;0.33;;;;;;;10.78;45.62;95509.19;5115293;28;20855;-54